Forside
METAR-TAF:

METAR-TAF

Lufthavne :

Chariton Municipal Airport

Chariton, Iowa, USA

Breddekreds: 41-02N, længdekreds: 093-22W, højde: 320 m

Aktuelle vejr

Denne rapport blev lavet for 14 minutter siden, kl. 11:35 UTC
Vind 4 kt fra sydsydøst
Temperatur 20°C
Fugtighed 100%
Tryk 1017 hPa
Sigt: 16.1 km
skyfri

METAR: KCNC 121135Z AUTO 15004KT 10SM CLR 20/20 A3004 RMK AO2

Tid: 06:49 (11:49 UTC)


TAF: fraværende

Vejrobservationer og prognoser fra mere end 4000 lufthavne (METAR og TAF).

De gule og røde prikker repræsenterer de meteorologiske stationer.

Flyt musen over at se navnet på stationen.

Så klik over at se vejr observationer og prognoser.

At skifte det kort: Klik på de grønne knapper med et sort kors for at zoome ind; på den grønne knap med en bindestreg for at zoome ud; eller på de grønne pile for tilstødende kort.


METAR-TAF: